sensor_id;sensor_type;location;lat;lon;timestamp;P1;durP1;ratioP1;P2;durP2;ratioP2
57567;SDS011;43403;51.948;5.922;2023-12-28T00:02:07;3.53;;;2.38;;
57567;SDS011;43403;51.948;5.922;2023-12-28T00:04:35;3.90;;;2.00;;
57567;SDS011;43403;51.948;5.922;2023-12-28T00:07:04;4.45;;;2.17;;
57567;SDS011;43403;51.948;5.922;2023-12-28T00:09:31;4.40;;;2.15;;
57567;SDS011;43403;51.948;5.922;2023-12-28T00:11:58;7.13;;;2.45;;
57567;SDS011;43403;51.948;5.922;2023-12-28T00:14:24;4.07;;;2.50;;
57567;SDS011;43403;51.948;5.922;2023-12-28T00:16:51;4.32;;;2.45;;
57567;SDS011;43403;51.948;5.922;2023-12-28T00:19:17;3.10;;;2.20;;
57567;SDS011;43403;51.948;5.922;2023-12-28T00:21:45;6.20;;;2.53;;
57567;SDS011;43403;51.948;5.922;2023-12-28T00:24:14;5.95;;;2.53;;
57567;SDS011;43403;51.948;5.922;2023-12-28T00:26:40;4.18;;;2.30;;
57567;SDS011;43403;51.948;5.922;2023-12-28T00:29:07;3.05;;;2.33;;
57567;SDS011;43403;51.948;5.922;2023-12-28T00:31:33;4.80;;;2.50;;
57567;SDS011;43403;51.948;5.922;2023-12-28T00:34:00;3.63;;;2.20;;
57567;SDS011;43403;51.948;5.922;2023-12-28T00:36:26;4.00;;;2.08;;
57567;SDS011;43403;51.948;5.922;2023-12-28T00:38:53;5.22;;;2.53;;
57567;SDS011;43403;51.948;5.922;2023-12-28T00:41:19;4.53;;;2.28;;
57567;SDS011;43403;51.948;5.922;2023-12-28T00:43:46;5.13;;;2.65;;
57567;SDS011;43403;51.948;5.922;2023-12-28T00:46:12;3.78;;;2.35;;
57567;SDS011;43403;51.948;5.922;2023-12-28T00:48:38;4.80;;;2.60;;
57567;SDS011;43403;51.948;5.922;2023-12-28T00:51:05;5.57;;;2.90;;
57567;SDS011;43403;51.948;5.922;2023-12-28T00:53:31;3.30;;;2.10;;
57567;SDS011;43403;51.948;5.922;2023-12-28T00:55:58;3.88;;;2.33;;
57567;SDS011;43403;51.948;5.922;2023-12-28T00:58:24;4.50;;;2.50;;
57567;SDS011;43403;51.948;5.922;2023-12-28T01:00:50;5.57;;;2.65;;
57567;SDS011;43403;51.948;5.922;2023-12-28T01:03:20;3.80;;;2.42;;
57567;SDS011;43403;51.948;5.922;2023-12-28T01:05:46;5.10;;;2.20;;
57567;SDS011;43403;51.948;5.922;2023-12-28T01:08:17;3.35;;;2.20;;
57567;SDS011;43403;51.948;5.922;2023-12-28T01:10:44;5.35;;;2.38;;
57567;SDS011;43403;51.948;5.922;2023-12-28T01:13:10;4.03;;;2.30;;
57567;SDS011;43403;51.948;5.922;2023-12-28T01:15:36;5.13;;;2.70;;
57567;SDS011;43403;51.948;5.922;2023-12-28T01:18:03;4.00;;;2.55;;
57567;SDS011;43403;51.948;5.922;2023-12-28T01:20:30;3.92;;;2.30;;
57567;SDS011;43403;51.948;5.922;2023-12-28T01:22:56;5.82;;;2.60;;
57567;SDS011;43403;51.948;5.922;2023-12-28T01:25:23;4.63;;;2.35;;
57567;SDS011;43403;51.948;5.922;2023-12-28T01:27:49;4.57;;;2.45;;
57567;SDS011;43403;51.948;5.922;2023-12-28T01:30:16;5.60;;;2.30;;
57567;SDS011;43403;51.948;5.922;2023-12-28T01:32:42;3.83;;;2.35;;
57567;SDS011;43403;51.948;5.922;2023-12-28T01:35:09;4.43;;;2.53;;
57567;SDS011;43403;51.948;5.922;2023-12-28T01:37:35;4.88;;;2.17;;
57567;SDS011;43403;51.948;5.922;2023-12-28T01:40:02;3.83;;;2.28;;
57567;SDS011;43403;51.948;5.922;2023-12-28T01:42:29;4.50;;;2.60;;
57567;SDS011;43403;51.948;5.922;2023-12-28T01:44:57;4.82;;;2.85;;
57567;SDS011;43403;51.948;5.922;2023-12-28T01:47:26;4.25;;;2.40;;
57567;SDS011;43403;51.948;5.922;2023-12-28T01:49:53;6.15;;;2.50;;
57567;SDS011;43403;51.948;5.922;2023-12-28T01:52:20;4.55;;;2.53;;
57567;SDS011;43403;51.948;5.922;2023-12-28T01:54:46;6.03;;;2.95;;
57567;SDS011;43403;51.948;5.922;2023-12-28T01:57:13;3.47;;;2.17;;
57567;SDS011;43403;51.948;5.922;2023-12-28T01:59:41;4.45;;;2.83;;
57567;SDS011;43403;51.948;5.922;2023-12-28T02:02:07;5.35;;;2.53;;
57567;SDS011;43403;51.948;5.922;2023-12-28T02:04:34;5.22;;;2.88;;
57567;SDS011;43403;51.948;5.922;2023-12-28T02:07:01;5.68;;;2.78;;
57567;SDS011;43403;51.948;5.922;2023-12-28T02:09:28;4.90;;;2.67;;
57567;SDS011;43403;51.948;5.922;2023-12-28T02:11:54;4.68;;;3.10;;
57567;SDS011;43403;51.948;5.922;2023-12-28T02:14:21;6.25;;;3.08;;
57567;SDS011;43403;51.948;5.922;2023-12-28T02:16:54;4.00;;;2.33;;
57567;SDS011;43403;51.948;5.922;2023-12-28T02:21:49;5.00;;;3.03;;
57567;SDS011;43403;51.948;5.922;2023-12-28T02:24:16;4.95;;;2.53;;
57567;SDS011;43403;51.948;5.922;2023-12-28T02:26:42;4.07;;;2.55;;
57567;SDS011;43403;51.948;5.922;2023-12-28T02:29:09;5.63;;;2.80;;
57567;SDS011;43403;51.948;5.922;2023-12-28T02:31:37;5.45;;;2.60;;
57567;SDS011;43403;51.948;5.922;2023-12-28T02:34:12;4.50;;;2.53;;
57567;SDS011;43403;51.948;5.922;2023-12-28T02:36:41;5.63;;;2.70;;
57567;SDS011;43403;51.948;5.922;2023-12-28T02:39:10;6.97;;;3.00;;
57567;SDS011;43403;51.948;5.922;2023-12-28T02:41:38;8.93;;;2.92;;
57567;SDS011;43403;51.948;5.922;2023-12-28T02:44:04;4.63;;;2.30;;
57567;SDS011;43403;51.948;5.922;2023-12-28T02:46:31;3.97;;;2.20;;
57567;SDS011;43403;51.948;5.922;2023-12-28T02:48:57;7.45;;;2.55;;
57567;SDS011;43403;51.948;5.922;2023-12-28T02:51:25;4.80;;;2.47;;
57567;SDS011;43403;51.948;5.922;2023-12-28T02:53:52;4.85;;;2.10;;
57567;SDS011;43403;51.948;5.922;2023-12-28T02:56:19;4.65;;;2.45;;
57567;SDS011;43403;51.948;5.922;2023-12-28T02:58:45;6.78;;;2.40;;
57567;SDS011;43403;51.948;5.922;2023-12-28T03:01:11;4.22;;;2.42;;
57567;SDS011;43403;51.948;5.922;2023-12-28T03:03:38;7.20;;;2.30;;
57567;SDS011;43403;51.948;5.922;2023-12-28T03:06:05;8.38;;;2.30;;
57567;SDS011;43403;51.948;5.922;2023-12-28T03:08:31;2.75;;;2.05;;
57567;SDS011;43403;51.948;5.922;2023-12-28T03:10:57;5.28;;;2.03;;
57567;SDS011;43403;51.948;5.922;2023-12-28T03:13:24;5.25;;;1.98;;
57567;SDS011;43403;51.948;5.922;2023-12-28T03:15:51;2.83;;;1.75;;
57567;SDS011;43403;51.948;5.922;2023-12-28T03:18:17;5.63;;;2.17;;
57567;SDS011;43403;51.948;5.922;2023-12-28T03:20:44;6.82;;;2.25;;
57567;SDS011;43403;51.948;5.922;2023-12-28T03:23:11;7.95;;;2.15;;
57567;SDS011;43403;51.948;5.922;2023-12-28T03:25:37;4.40;;;2.28;;
57567;SDS011;43403;51.948;5.922;2023-12-28T03:28:04;5.30;;;1.95;;
57567;SDS011;43403;51.948;5.922;2023-12-28T03:30:31;8.20;;;2.22;;
57567;SDS011;43403;51.948;5.922;2023-12-28T03:32:57;4.15;;;1.88;;
57567;SDS011;43403;51.948;5.922;2023-12-28T03:35:23;5.43;;;2.13;;
57567;SDS011;43403;51.948;5.922;2023-12-28T03:37:50;5.65;;;2.22;;
57567;SDS011;43403;51.948;5.922;2023-12-28T03:40:16;6.60;;;1.90;;
57567;SDS011;43403;51.948;5.922;2023-12-28T03:42:45;5.95;;;2.10;;
57567;SDS011;43403;51.948;5.922;2023-12-28T03:45:12;6.35;;;2.58;;
57567;SDS011;43403;51.948;5.922;2023-12-28T03:47:38;5.72;;;1.88;;
57567;SDS011;43403;51.948;5.922;2023-12-28T03:50:05;5.95;;;2.35;;
57567;SDS011;43403;51.948;5.922;2023-12-28T03:52:32;5.88;;;2.35;;
57567;SDS011;43403;51.948;5.922;2023-12-28T03:54:58;6.40;;;1.98;;
57567;SDS011;43403;51.948;5.922;2023-12-28T03:57:25;4.22;;;2.17;;
57567;SDS011;43403;51.948;5.922;2023-12-28T03:59:52;5.47;;;1.90;;
57567;SDS011;43403;51.948;5.922;2023-12-28T04:02:20;7.90;;;2.15;;
57567;SDS011;43403;51.948;5.922;2023-12-28T04:04:46;6.93;;;2.53;;
57567;SDS011;43403;51.948;5.922;2023-12-28T04:07:12;8.00;;;2.20;;
57567;SDS011;43403;51.948;5.922;2023-12-28T04:09:41;7.05;;;2.03;;
57567;SDS011;43403;51.948;5.922;2023-12-28T04:12:07;7.28;;;2.10;;
57567;SDS011;43403;51.948;5.922;2023-12-28T04:14:34;4.88;;;1.70;;
57567;SDS011;43403;51.948;5.922;2023-12-28T04:17:01;7.37;;;2.07;;
57567;SDS011;43403;51.948;5.922;2023-12-28T04:19:28;9.18;;;1.98;;
57567;SDS011;43403;51.948;5.922;2023-12-28T04:21:54;5.32;;;1.60;;
57567;SDS011;43403;51.948;5.922;2023-12-28T04:24:22;6.40;;;2.28;;
57567;SDS011;43403;51.948;5.922;2023-12-28T04:26:48;6.07;;;2.05;;
57567;SDS011;43403;51.948;5.922;2023-12-28T04:29:15;6.05;;;1.73;;
57567;SDS011;43403;51.948;5.922;2023-12-28T04:31:41;10.35;;;2.15;;
57567;SDS011;43403;51.948;5.922;2023-12-28T04:34:08;7.53;;;1.80;;
57567;SDS011;43403;51.948;5.922;2023-12-28T04:36:42;6.50;;;1.80;;
57567;SDS011;43403;51.948;5.922;2023-12-28T04:39:09;4.00;;;1.42;;
57567;SDS011;43403;51.948;5.922;2023-12-28T04:41:35;6.45;;;1.63;;
57567;SDS011;43403;51.948;5.922;2023-12-28T04:44:02;6.82;;;1.90;;
57567;SDS011;43403;51.948;5.922;2023-12-28T04:46:28;9.93;;;1.83;;
57567;SDS011;43403;51.948;5.922;2023-12-28T04:48:55;9.95;;;1.90;;
57567;SDS011;43403;51.948;5.922;2023-12-28T04:51:21;10.88;;;2.15;;
57567;SDS011;43403;51.948;5.922;2023-12-28T04:53:48;8.40;;;1.77;;
57567;SDS011;43403;51.948;5.922;2023-12-28T04:56:17;8.30;;;2.28;;
57567;SDS011;43403;51.948;5.922;2023-12-28T04:58:44;8.05;;;1.70;;
57567;SDS011;43403;51.948;5.922;2023-12-28T05:01:10;6.32;;;1.85;;
57567;SDS011;43403;51.948;5.922;2023-12-28T05:03:37;9.30;;;2.28;;
57567;SDS011;43403;51.948;5.922;2023-12-28T05:06:04;5.65;;;1.67;;
57567;SDS011;43403;51.948;5.922;2023-12-28T05:08:30;8.82;;;1.90;;
57567;SDS011;43403;51.948;5.922;2023-12-28T05:10:57;10.13;;;2.55;;
57567;SDS011;43403;51.948;5.922;2023-12-28T05:13:23;8.77;;;2.20;;
57567;SDS011;43403;51.948;5.922;2023-12-28T05:15:50;9.88;;;1.92;;
57567;SDS011;43403;51.948;5.922;2023-12-28T05:18:16;10.30;;;2.00;;
57567;SDS011;43403;51.948;5.922;2023-12-28T05:20:43;5.05;;;1.63;;
57567;SDS011;43403;51.948;5.922;2023-12-28T05:23:09;10.38;;;2.03;;
57567;SDS011;43403;51.948;5.922;2023-12-28T05:25:36;8.15;;;1.83;;
57567;SDS011;43403;51.948;5.922;2023-12-28T05:28:02;9.18;;;2.28;;
57567;SDS011;43403;51.948;5.922;2023-12-28T05:30:29;8.07;;;2.13;;
57567;SDS011;43403;51.948;5.922;2023-12-28T05:32:56;11.43;;;2.30;;
57567;SDS011;43403;51.948;5.922;2023-12-28T05:35:23;13.68;;;2.58;;
57567;SDS011;43403;51.948;5.922;2023-12-28T05:37:49;5.22;;;1.60;;
57567;SDS011;43403;51.948;5.922;2023-12-28T05:40:15;9.98;;;2.28;;
57567;SDS011;43403;51.948;5.922;2023-12-28T05:42:42;9.10;;;1.90;;
57567;SDS011;43403;51.948;5.922;2023-12-28T05:45:08;8.07;;;2.20;;
57567;SDS011;43403;51.948;5.922;2023-12-28T05:47:36;5.45;;;2.30;;
57567;SDS011;43403;51.948;5.922;2023-12-28T05:50:02;12.43;;;2.33;;
57567;SDS011;43403;51.948;5.922;2023-12-28T05:52:29;13.00;;;1.70;;
57567;SDS011;43403;51.948;5.922;2023-12-28T05:54:56;12.30;;;2.42;;
57567;SDS011;43403;51.948;5.922;2023-12-28T05:57:23;13.63;;;2.60;;
57567;SDS011;43403;51.948;5.922;2023-12-28T05:59:49;10.35;;;2.45;;
57567;SDS011;43403;51.948;5.922;2023-12-28T06:02:16;12.27;;;2.03;;
57567;SDS011;43403;51.948;5.922;2023-12-28T06:04:42;10.13;;;2.25;;
57567;SDS011;43403;51.948;5.922;2023-12-28T06:07:09;11.07;;;2.00;;
57567;SDS011;43403;51.948;5.922;2023-12-28T06:09:35;11.63;;;2.05;;
57567;SDS011;43403;51.948;5.922;2023-12-28T06:12:04;7.25;;;1.95;;
57567;SDS011;43403;51.948;5.922;2023-12-28T06:14:31;9.73;;;1.75;;
57567;SDS011;43403;51.948;5.922;2023-12-28T06:16:57;13.07;;;2.22;;
57567;SDS011;43403;51.948;5.922;2023-12-28T06:19:23;15.48;;;2.60;;
57567;SDS011;43403;51.948;5.922;2023-12-28T06:21:50;8.80;;;1.70;;
57567;SDS011;43403;51.948;5.922;2023-12-28T06:24:17;9.30;;;2.13;;
57567;SDS011;43403;51.948;5.922;2023-12-28T06:26:43;11.75;;;2.35;;
57567;SDS011;43403;51.948;5.922;2023-12-28T06:29:10;6.82;;;1.73;;
57567;SDS011;43403;51.948;5.922;2023-12-28T06:31:37;10.93;;;1.88;;
57567;SDS011;43403;51.948;5.922;2023-12-28T06:34:04;9.90;;;1.73;;
57567;SDS011;43403;51.948;5.922;2023-12-28T06:36:31;14.90;;;2.63;;
57567;SDS011;43403;51.948;5.922;2023-12-28T06:38:58;13.20;;;2.53;;
57567;SDS011;43403;51.948;5.922;2023-12-28T06:41:25;10.88;;;2.05;;
57567;SDS011;43403;51.948;5.922;2023-12-28T06:43:52;9.20;;;1.77;;
57567;SDS011;43403;51.948;5.922;2023-12-28T06:46:18;12.05;;;2.63;;
57567;SDS011;43403;51.948;5.922;2023-12-28T06:48:46;9.63;;;2.30;;
57567;SDS011;43403;51.948;5.922;2023-12-28T06:51:20;11.23;;;1.95;;
57567;SDS011;43403;51.948;5.922;2023-12-28T06:53:47;11.63;;;2.28;;
57567;SDS011;43403;51.948;5.922;2023-12-28T06:56:14;10.43;;;2.10;;
57567;SDS011;43403;51.948;5.922;2023-12-28T06:58:41;13.02;;;2.50;;
57567;SDS011;43403;51.948;5.922;2023-12-28T07:01:08;12.93;;;2.67;;
57567;SDS011;43403;51.948;5.922;2023-12-28T07:03:35;15.95;;;2.75;;
57567;SDS011;43403;51.948;5.922;2023-12-28T07:06:01;8.10;;;1.77;;
57567;SDS011;43403;51.948;5.922;2023-12-28T07:08:29;12.68;;;2.22;;
57567;SDS011;43403;51.948;5.922;2023-12-28T07:11:01;11.95;;;2.03;;
57567;SDS011;43403;51.948;5.922;2023-12-28T07:13:27;13.45;;;2.20;;
57567;SDS011;43403;51.948;5.922;2023-12-28T07:15:54;9.60;;;1.90;;
57567;SDS011;43403;51.948;5.922;2023-12-28T07:18:25;15.48;;;3.10;;
57567;SDS011;43403;51.948;5.922;2023-12-28T07:20:52;12.13;;;2.08;;
57567;SDS011;43403;51.948;5.922;2023-12-28T07:23:18;11.40;;;2.10;;
57567;SDS011;43403;51.948;5.922;2023-12-28T07:25:45;10.38;;;2.10;;
57567;SDS011;43403;51.948;5.922;2023-12-28T07:28:12;19.33;;;2.53;;
57567;SDS011;43403;51.948;5.922;2023-12-28T07:30:39;18.35;;;2.58;;
57567;SDS011;43403;51.948;5.922;2023-12-28T07:33:07;14.02;;;2.92;;
57567;SDS011;43403;51.948;5.922;2023-12-28T07:35:33;13.68;;;2.63;;
57567;SDS011;43403;51.948;5.922;2023-12-28T07:38:00;11.85;;;2.47;;
57567;SDS011;43403;51.948;5.922;2023-12-28T07:40:27;16.20;;;2.88;;
57567;SDS011;43403;51.948;5.922;2023-12-28T07:42:54;15.18;;;2.15;;
57567;SDS011;43403;51.948;5.922;2023-12-28T07:45:20;13.48;;;2.75;;
57567;SDS011;43403;51.948;5.922;2023-12-28T07:47:50;16.63;;;2.47;;
57567;SDS011;43403;51.948;5.922;2023-12-28T07:50:17;15.55;;;2.40;;
57567;SDS011;43403;51.948;5.922;2023-12-28T07:52:44;12.60;;;2.20;;
57567;SDS011;43403;51.948;5.922;2023-12-28T07:55:11;18.63;;;3.17;;
57567;SDS011;43403;51.948;5.922;2023-12-28T07:57:37;11.35;;;2.03;;
57567;SDS011;43403;51.948;5.922;2023-12-28T08:00:04;12.45;;;2.40;;
57567;SDS011;43403;51.948;5.922;2023-12-28T08:02:31;18.88;;;2.70;;
57567;SDS011;43403;51.948;5.922;2023-12-28T08:04:58;14.60;;;2.25;;
57567;SDS011;43403;51.948;5.922;2023-12-28T08:07:25;12.77;;;1.85;;
57567;SDS011;43403;51.948;5.922;2023-12-28T08:09:51;16.20;;;2.83;;
57567;SDS011;43403;51.948;5.922;2023-12-28T08:12:17;15.70;;;2.30;;
57567;SDS011;43403;51.948;5.922;2023-12-28T08:14:44;11.68;;;2.33;;
57567;SDS011;43403;51.948;5.922;2023-12-28T08:17:10;13.57;;;2.83;;
57567;SDS011;43403;51.948;5.922;2023-12-28T08:19:37;15.05;;;3.35;;
57567;SDS011;43403;51.948;5.922;2023-12-28T08:22:03;19.05;;;2.45;;
57567;SDS011;43403;51.948;5.922;2023-12-28T08:24:30;13.90;;;2.63;;
57567;SDS011;43403;51.948;5.922;2023-12-28T08:26:58;17.60;;;2.30;;
57567;SDS011;43403;51.948;5.922;2023-12-28T08:29:26;24.17;;;3.35;;
57567;SDS011;43403;51.948;5.922;2023-12-28T08:31:52;10.75;;;2.20;;
57567;SDS011;43403;51.948;5.922;2023-12-28T08:34:19;15.85;;;2.58;;
57567;SDS011;43403;51.948;5.922;2023-12-28T08:36:46;14.98;;;2.80;;
57567;SDS011;43403;51.948;5.922;2023-12-28T08:39:13;13.77;;;2.58;;
57567;SDS011;43403;51.948;5.922;2023-12-28T08:41:39;12.90;;;2.90;;
57567;SDS011;43403;51.948;5.922;2023-12-28T08:44:06;15.05;;;2.63;;
57567;SDS011;43403;51.948;5.922;2023-12-28T08:46:32;12.10;;;3.08;;
57567;SDS011;43403;51.948;5.922;2023-12-28T08:48:58;10.90;;;2.17;;
57567;SDS011;43403;51.948;5.922;2023-12-28T08:51:25;13.73;;;1.98;;
57567;SDS011;43403;51.948;5.922;2023-12-28T08:53:51;16.85;;;2.97;;
57567;SDS011;43403;51.948;5.922;2023-12-28T08:56:21;15.15;;;2.95;;
57567;SDS011;43403;51.948;5.922;2023-12-28T08:58:48;13.25;;;2.08;;
57567;SDS011;43403;51.948;5.922;2023-12-28T09:01:16;13.25;;;2.10;;
57567;SDS011;43403;51.948;5.922;2023-12-28T09:03:43;12.38;;;2.28;;
57567;SDS011;43403;51.948;5.922;2023-12-28T09:06:09;11.02;;;1.65;;
57567;SDS011;43403;51.948;5.922;2023-12-28T09:08:36;15.23;;;2.25;;
57567;SDS011;43403;51.948;5.922;2023-12-28T09:11:03;16.92;;;2.50;;
57567;SDS011;43403;51.948;5.922;2023-12-28T09:13:30;13.90;;;2.47;;
57567;SDS011;43403;51.948;5.922;2023-12-28T09:15:57;16.65;;;2.65;;
57567;SDS011;43403;51.948;5.922;2023-12-28T09:18:24;18.25;;;3.08;;
57567;SDS011;43403;51.948;5.922;2023-12-28T09:20:50;11.50;;;2.03;;
57567;SDS011;43403;51.948;5.922;2023-12-28T09:23:17;10.13;;;1.98;;
57567;SDS011;43403;51.948;5.922;2023-12-28T09:25:44;13.38;;;2.58;;
57567;SDS011;43403;51.948;5.922;2023-12-28T09:28:10;18.60;;;2.75;;
57567;SDS011;43403;51.948;5.922;2023-12-28T09:30:36;18.98;;;2.58;;
57567;SDS011;43403;51.948;5.922;2023-12-28T09:33:03;16.55;;;2.75;;
57567;SDS011;43403;51.948;5.922;2023-12-28T09:35:30;24.13;;;3.38;;
57567;SDS011;43403;51.948;5.922;2023-12-28T09:37:57;18.75;;;2.60;;
57567;SDS011;43403;51.948;5.922;2023-12-28T09:40:24;21.50;;;3.90;;
57567;SDS011;43403;51.948;5.922;2023-12-28T09:42:53;9.95;;;1.85;;
57567;SDS011;43403;51.948;5.922;2023-12-28T09:45:20;17.63;;;2.90;;
57567;SDS011;43403;51.948;5.922;2023-12-28T09:47:47;13.90;;;2.42;;
57567;SDS011;43403;51.948;5.922;2023-12-28T09:50:18;18.98;;;3.10;;
57567;SDS011;43403;51.948;5.922;2023-12-28T09:52:45;10.52;;;2.15;;
57567;SDS011;43403;51.948;5.922;2023-12-28T09:55:11;12.98;;;2.47;;
57567;SDS011;43403;51.948;5.922;2023-12-28T09:57:38;14.43;;;3.33;;
57567;SDS011;43403;51.948;5.922;2023-12-28T10:00:05;10.23;;;1.88;;
57567;SDS011;43403;51.948;5.922;2023-12-28T10:02:32;10.52;;;2.25;;
57567;SDS011;43403;51.948;5.922;2023-12-28T10:05:02;13.48;;;2.83;;
57567;SDS011;43403;51.948;5.922;2023-12-28T10:07:28;14.77;;;3.75;;
57567;SDS011;43403;51.948;5.922;2023-12-28T10:09:55;12.23;;;2.95;;
57567;SDS011;43403;51.948;5.922;2023-12-28T10:12:21;12.55;;;2.38;;
57567;SDS011;43403;51.948;5.922;2023-12-28T10:14:50;13.63;;;2.13;;
57567;SDS011;43403;51.948;5.922;2023-12-28T10:17:16;13.13;;;2.30;;
57567;SDS011;43403;51.948;5.922;2023-12-28T10:19:43;15.50;;;3.17;;
57567;SDS011;43403;51.948;5.922;2023-12-28T10:22:17;11.88;;;2.60;;
57567;SDS011;43403;51.948;5.922;2023-12-28T10:24:44;23.50;;;3.22;;
57567;SDS011;43403;51.948;5.922;2023-12-28T10:27:10;16.02;;;2.63;;
57567;SDS011;43403;51.948;5.922;2023-12-28T10:29:39;18.45;;;2.30;;
57567;SDS011;43403;51.948;5.922;2023-12-28T10:32:06;13.00;;;2.33;;
57567;SDS011;43403;51.948;5.922;2023-12-28T10:34:32;13.40;;;2.10;;
57567;SDS011;43403;51.948;5.922;2023-12-28T10:36:59;13.43;;;2.88;;
57567;SDS011;43403;51.948;5.922;2023-12-28T10:39:28;20.65;;;2.60;;
57567;SDS011;43403;51.948;5.922;2023-12-28T10:41:59;15.55;;;1.90;;
57567;SDS011;43403;51.948;5.922;2023-12-28T10:44:30;11.90;;;2.72;;
57567;SDS011;43403;51.948;5.922;2023-12-28T10:46:59;11.57;;;2.45;;
57567;SDS011;43403;51.948;5.922;2023-12-28T10:49:28;16.40;;;2.40;;
57567;SDS011;43403;51.948;5.922;2023-12-28T10:56:52;15.20;;;2.65;;
57567;SDS011;43403;51.948;5.922;2023-12-28T11:01:49;10.90;;;2.53;;
57567;SDS011;43403;51.948;5.922;2023-12-28T11:07:22;23.40;;;2.88;;
57567;SDS011;43403;51.948;5.922;2023-12-28T11:09:49;17.55;;;1.90;;
57567;SDS011;43403;51.948;5.922;2023-12-28T11:12:16;17.30;;;3.22;;
57567;SDS011;43403;51.948;5.922;2023-12-28T11:14:45;11.70;;;2.35;;
57567;SDS011;43403;51.948;5.922;2023-12-28T11:17:14;18.50;;;2.88;;
57567;SDS011;43403;51.948;5.922;2023-12-28T11:19:44;15.18;;;2.85;;
57567;SDS011;43403;51.948;5.922;2023-12-28T11:22:11;21.95;;;3.45;;
57567;SDS011;43403;51.948;5.922;2023-12-28T11:24:38;11.23;;;2.10;;
57567;SDS011;43403;51.948;5.922;2023-12-28T11:27:04;14.75;;;2.40;;
57567;SDS011;43403;51.948;5.922;2023-12-28T11:29:36;19.83;;;2.50;;
57567;SDS011;43403;51.948;5.922;2023-12-28T11:32:04;14.43;;;2.33;;
57567;SDS011;43403;51.948;5.922;2023-12-28T11:34:32;17.63;;;2.60;;
57567;SDS011;43403;51.948;5.922;2023-12-28T11:37:04;13.13;;;2.53;;
57567;SDS011;43403;51.948;5.922;2023-12-28T11:39:32;17.57;;;3.07;;
57567;SDS011;43403;51.948;5.922;2023-12-28T11:42:05;19.90;;;3.00;;
57567;SDS011;43403;51.948;5.922;2023-12-28T11:45:15;22.73;;;3.85;;
57567;SDS011;43403;51.948;5.922;2023-12-28T11:47:24;15.50;;;2.33;;
57567;SDS011;43403;51.948;5.922;2023-12-28T11:49:51;16.65;;;2.10;;
57567;SDS011;43403;51.948;5.922;2023-12-28T11:52:22;18.20;;;2.75;;
57567;SDS011;43403;51.948;5.922;2023-12-28T11:54:49;14.27;;;2.53;;
57567;SDS011;43403;51.948;5.922;2023-12-28T11:57:16;16.05;;;2.60;;
57567;SDS011;43403;51.948;5.922;2023-12-28T11:59:44;16.38;;;2.88;;
57567;SDS011;43403;51.948;5.922;2023-12-28T12:02:12;18.58;;;3.00;;
57567;SDS011;43403;51.948;5.922;2023-12-28T12:04:40;20.73;;;3.38;;
57567;SDS011;43403;51.948;5.922;2023-12-28T12:07:08;16.10;;;2.42;;
57567;SDS011;43403;51.948;5.922;2023-12-28T12:09:35;14.73;;;2.45;;
57567;SDS011;43403;51.948;5.922;2023-12-28T12:12:02;15.70;;;2.15;;
57567;SDS011;43403;51.948;5.922;2023-12-28T12:14:29;17.63;;;2.55;;
57567;SDS011;43403;51.948;5.922;2023-12-28T12:16:56;15.45;;;2.42;;
57567;SDS011;43403;51.948;5.922;2023-12-28T12:19:24;19.90;;;2.78;;
57567;SDS011;43403;51.948;5.922;2023-12-28T12:21:55;13.30;;;2.22;;
57567;SDS011;43403;51.948;5.922;2023-12-28T12:24:22;20.63;;;3.60;;
57567;SDS011;43403;51.948;5.922;2023-12-28T12:26:52;14.40;;;2.35;;
57567;SDS011;43403;51.948;5.922;2023-12-28T12:29:19;17.48;;;2.67;;
57567;SDS011;43403;51.948;5.922;2023-12-28T12:31:53;18.58;;;2.90;;
57567;SDS011;43403;51.948;5.922;2023-12-28T12:34:20;21.75;;;3.03;;
57567;SDS011;43403;51.948;5.922;2023-12-28T12:36:50;18.20;;;2.83;;
57567;SDS011;43403;51.948;5.922;2023-12-28T12:39:24;16.92;;;3.15;;
57567;SDS011;43403;51.948;5.922;2023-12-28T12:41:51;14.18;;;2.65;;
57567;SDS011;43403;51.948;5.922;2023-12-28T12:44:19;11.57;;;2.37;;
57567;SDS011;43403;51.948;5.922;2023-12-28T12:46:48;14.88;;;2.80;;
57567;SDS011;43403;51.948;5.922;2023-12-28T12:49:15;13.02;;;2.03;;
57567;SDS011;43403;51.948;5.922;2023-12-28T12:51:45;18.02;;;2.58;;
57567;SDS011;43403;51.948;5.922;2023-12-28T12:54:13;16.30;;;2.60;;
57567;SDS011;43403;51.948;5.922;2023-12-28T12:56:40;15.13;;;1.95;;
57567;SDS011;43403;51.948;5.922;2023-12-28T12:59:12;16.25;;;2.55;;
57567;SDS011;43403;51.948;5.922;2023-12-28T13:01:43;11.70;;;2.58;;
57567;SDS011;43403;51.948;5.922;2023-12-28T13:04:10;18.13;;;2.83;;
57567;SDS011;43403;51.948;5.922;2023-12-28T13:06:40;15.52;;;2.28;;
57567;SDS011;43403;51.948;5.922;2023-12-28T13:09:08;14.30;;;2.17;;
57567;SDS011;43403;51.948;5.922;2023-12-28T13:11:38;26.02;;;3.40;;
57567;SDS011;43403;51.948;5.922;2023-12-28T13:14:05;21.77;;;3.15;;
57567;SDS011;43403;51.948;5.922;2023-12-28T13:16:36;21.27;;;2.88;;
57567;SDS011;43403;51.948;5.922;2023-12-28T13:19:03;17.17;;;3.92;;
57567;SDS011;43403;51.948;5.922;2023-12-28T13:21:29;17.73;;;2.90;;
57567;SDS011;43403;51.948;5.922;2023-12-28T13:24:02;14.52;;;2.85;;
57567;SDS011;43403;51.948;5.922;2023-12-28T13:26:32;21.10;;;3.63;;
57567;SDS011;43403;51.948;5.922;2023-12-28T13:28:59;11.07;;;2.08;;
57567;SDS011;43403;51.948;5.922;2023-12-28T13:31:31;14.20;;;2.30;;
57567;SDS011;43403;51.948;5.922;2023-12-28T13:33:58;17.88;;;3.03;;
57567;SDS011;43403;51.948;5.922;2023-12-28T13:36:25;14.23;;;2.60;;
57567;SDS011;43403;51.948;5.922;2023-12-28T13:38:57;14.63;;;2.83;;
57567;SDS011;43403;51.948;5.922;2023-12-28T13:41:24;13.90;;;2.78;;
57567;SDS011;43403;51.948;5.922;2023-12-28T13:43:51;15.10;;;2.80;;
57567;SDS011;43403;51.948;5.922;2023-12-28T13:46:20;15.95;;;2.55;;
57567;SDS011;43403;51.948;5.922;2023-12-28T13:48:46;19.17;;;2.90;;
57567;SDS011;43403;51.948;5.922;2023-12-28T13:51:15;14.88;;;2.70;;
57567;SDS011;43403;51.948;5.922;2023-12-28T13:53:42;15.80;;;3.17;;
57567;SDS011;43403;51.948;5.922;2023-12-28T13:56:09;17.45;;;2.25;;
57567;SDS011;43403;51.948;5.922;2023-12-28T13:58:36;14.63;;;2.80;;
57567;SDS011;43403;51.948;5.922;2023-12-28T14:01:02;12.70;;;2.20;;
57567;SDS011;43403;51.948;5.922;2023-12-28T14:03:30;13.50;;;2.77;;
57567;SDS011;43403;51.948;5.922;2023-12-28T14:05:57;15.70;;;2.72;;
57567;SDS011;43403;51.948;5.922;2023-12-28T14:08:23;18.98;;;2.85;;
57567;SDS011;43403;51.948;5.922;2023-12-28T14:10:50;13.80;;;2.60;;
57567;SDS011;43403;51.948;5.922;2023-12-28T14:13:16;15.05;;;2.85;;
57567;SDS011;43403;51.948;5.922;2023-12-28T14:15:43;15.82;;;2.40;;
57567;SDS011;43403;51.948;5.922;2023-12-28T14:18:10;15.50;;;3.40;;
57567;SDS011;43403;51.948;5.922;2023-12-28T14:20:37;12.07;;;2.45;;
57567;SDS011;43403;51.948;5.922;2023-12-28T14:23:04;12.10;;;2.97;;
57567;SDS011;43403;51.948;5.922;2023-12-28T14:25:34;16.80;;;3.03;;
57567;SDS011;43403;51.948;5.922;2023-12-28T14:28:02;12.40;;;2.47;;
57567;SDS011;43403;51.948;5.922;2023-12-28T14:32:55;14.02;;;2.30;;
57567;SDS011;43403;51.948;5.922;2023-12-28T14:35:23;18.20;;;3.03;;
57567;SDS011;43403;51.948;5.922;2023-12-28T14:37:51;19.70;;;3.80;;
57567;SDS011;43403;51.948;5.922;2023-12-28T14:40:17;18.15;;;3.53;;
57567;SDS011;43403;51.948;5.922;2023-12-28T14:42:44;15.10;;;3.15;;
57567;SDS011;43403;51.948;5.922;2023-12-28T14:45:10;12.68;;;1.80;;
57567;SDS011;43403;51.948;5.922;2023-12-28T14:47:37;15.80;;;3.17;;
57567;SDS011;43403;51.948;5.922;2023-12-28T14:50:04;17.15;;;2.92;;
57567;SDS011;43403;51.948;5.922;2023-12-28T14:52:32;13.68;;;3.22;;
57567;SDS011;43403;51.948;5.922;2023-12-28T14:54:59;17.85;;;3.40;;
57567;SDS011;43403;51.948;5.922;2023-12-28T14:57:25;16.73;;;2.45;;